Sds Green — ICOK — position and weather

sailwx.info

Track history (hours):
 
Tides and Currents Weather Stations Pressure Air Temp Water Temp Dewpoint Dewpoint Depression Visibility Wind Speed Wind Dir Waves Ship Positions

Sds Green

Last reported at 2016-May-28 06:26 UTC. Time now 2016-May-31 16:12 UTC.
Position N 37°52' E 015°59'.

Length 108 m; draft 4.4 m.

Type: Cargo ship. MMSI: 247292200.

Date/timePositionNaut miles runAvg speedWind from/ knotsBaromVisibWave heightAir tempDewpointWater temp
2016-May-28 06:26N 37°52' E 015°59'1011.2
2016-May-28 05:33N 37°52' E 015°47'1110.7
2016-May-28 04:33N 37°59' E 015°37'1212.1
2016-May-28 03:33N 38°11' E 015°36'1010.4
2016-May-28 02:33N 38°21' E 015°38'1111.2
2016-May-28 01:33N 38°32' E 015°32'1111.3
2016-May-28 00:33N 38°42' E 015°27'1110.9
2016-May-27 23:32N 38°53' E 015°22'1010.3
2016-May-27 22:33N 39°02' E 015°17'7211.1
2016-May-27 16:04N 40°10' E 014°44'611.2
2016-May-27 15:33N 40°15' E 014°43'1511.3
2016-May-27 14:12N 40°31' E 014°43'  
2016-May-24 22:33N 40°44' E 013°39'1110.6
2016-May-24 21:33N 40°51' E 013°30'1110.6
2016-May-24 20:33N 40°57' E 013°18'1110.8
2016-May-24 19:33N 41°03' E 013°06'1110.8
2016-May-24 18:33N 41°09' E 012°54'1110.8
2016-May-24 17:33N 41°14' E 012°42'2110.7
2016-May-24 15:33N 41°28' E 012°20'1110.7
2016-May-24 14:33N 41°35' E 012°10'  
2016-May-21 13:24N 42°56' E 010°34'2 2.3
2016-May-21 12:24N 42°54' E 010°34'8 9.1
2016-May-21 11:33N 42°55' E 010°23'1010.1
2016-May-21 10:33N 42°55' E 010°10'1010.1
2016-May-21 09:33N 42°55' E 009°56'10 9.8
2016-May-21 08:33N 42°56' E 009°43'1010.0
2016-May-21 07:33N 43°01' E 009°30'10 9.7
2016-May-21 06:33N 43°02' E 009°17'1010.4
2016-May-21 05:33N 43°02' E 009°03'1110.7
2016-May-21 04:33N 43°01' E 008°49'1010.3
2016-May-21 03:33N 43°00' E 008°35'1010.3
2016-May-21 02:33N 42°60' E 008°20'1010.3
2016-May-21 01:33N 42°59' E 008°06'1110.6
2016-May-21 00:33N 42°58' E 007°52'1111.2
2016-May-20 23:33N 42°58' E 007°37'103 9.9
2016-May-20 13:06N 43°07' E 005°16'610.5
2016-May-20 12:33N 43°09' E 005°09'9 9.4
2016-May-20 11:33N 43°16' E 004°60'9 9.3
2016-May-20 10:33N 43°24' E 004°54'2 1.4
2016-May-20 09:26N 43°26' E 004°53'0 0.0
2016-May-20 08:32N 43°26' E 004°53'0 0.0
2016-May-20 07:32N 43°26' E 004°53'0 0.0
2016-May-20 06:32N 43°26' E 004°53'0 0.0
2016-May-20 04:32N 43°26' E 004°53'0 0.0
2016-May-20 03:29N 43°26' E 004°53'0 0.0
2016-May-20 02:23N 43°26' E 004°53'0 0.0
2016-May-20 01:32N 43°26' E 004°53'0 0.0
2016-May-20 00:29N 43°26' E 004°53'0 0.0
2016-May-19 23:29N 43°26' E 004°53'0 0.0
2016-May-19 22:29N 43°26' E 004°53'0 0.0
2016-May-19 21:32N 43°26' E 004°53'0 0.0
2016-May-19 20:32N 43°26' E 004°53'0 0.0
2016-May-19 19:32N 43°26' E 004°53'0 0.0
2016-May-19 18:32N 43°26' E 004°53'0 0.0
2016-May-19 17:32N 43°26' E 004°53'0 0.0
2016-May-19 16:29N 43°26' E 004°53'0 0.0
2016-May-19 15:32N 43°26' E 004°53'0 0.0
2016-May-19 14:32N 43°26' E 004°53'0 0.0
2016-May-19 13:32N 43°26' E 004°53'0 0.0
2016-May-19 12:32N 43°26' E 004°53'0 0.0
2016-May-19 11:32N 43°26' E 004°53'0 0.0
2016-May-19 10:32N 43°26' E 004°53'0 0.0
2016-May-19 09:29N 43°26' E 004°53'0 0.0
2016-May-19 08:32N 43°26' E 004°53'0 0.0
2016-May-19 07:32N 43°26' E 004°53'0 0.0
2016-May-19 06:32N 43°26' E 004°53'0 0.0
2016-May-19 05:32N 43°26' E 004°53'0 0.0
2016-May-19 04:32N 43°26' E 004°53'0 0.0
2016-May-19 03:32N 43°26' E 004°53'0 0.0
2016-May-19 02:32N 43°26' E 004°53'0 0.0
2016-May-19 01:29N 43°26' E 004°53'0 0.0
2016-May-19 00:29N 43°26' E 004°53'0 0.0
2016-May-18 23:32N 43°26' E 004°53'0 0.0
2016-May-18 22:32N 43°26' E 004°53'0 0.0
2016-May-18 21:32N 43°26' E 004°53'0 0.0
2016-May-18 20:32N 43°26' E 004°53'0 0.0
2016-May-18 19:23N 43°26' E 004°53'0 0.0
2016-May-18 18:32N 43°26' E 004°53'0 0.0
2016-May-18 17:32N 43°26' E 004°53'0 0.0
2016-May-18 16:26N 43°26' E 004°53'0 0.0
2016-May-18 15:32N 43°26' E 004°53'0 0.0
2016-May-18 14:32N 43°26' E 004°53'0 0.0
2016-May-18 13:29N 43°26' E 004°53'0 0.0
2016-May-18 12:29N 43°26' E 004°53'0 0.0
2016-May-18 11:32N 43°26' E 004°53'0 0.0
2016-May-18 10:32N 43°26' E 004°53'0 0.0
2016-May-18 09:32N 43°26' E 004°53'0 0.0
2016-May-18 08:32N 43°26' E 004°53'0 0.0
2016-May-18 07:32N 43°26' E 004°53'0 0.0
2016-May-18 06:32N 43°26' E 004°53'  
Track history (hours):
 
Tides and Currents Weather Stations Pressure Air Temp Water Temp Dewpoint Dewpoint Depression Visibility Wind Speed Wind Dir Waves Ship Positions

Sds Green

Last reported at 2016-May-28 06:26 UTC. Time now 2016-May-31 16:12 UTC.
Position N 37°52' E 015°59'.

Length 108 m; draft 4.4 m.

Type: Cargo ship. MMSI: 247292200.

Date/timePositionNaut miles runAvg speedWind from/ knotsBaromVisibWave heightAir tempDewpointWater temp
2016-May-28 06:26N 37°52' E 015°59'1011.2
2016-May-28 05:33N 37°52' E 015°47'1110.7
2016-May-28 04:33N 37°59' E 015°37'1212.1
2016-May-28 03:33N 38°11' E 015°36'1010.4
2016-May-28 02:33N 38°21' E 015°38'1111.2
2016-May-28 01:33N 38°32' E 015°32'1111.3
2016-May-28 00:33N 38°42' E 015°27'1110.9
2016-May-27 23:32N 38°53' E 015°22'1010.3
2016-May-27 22:33N 39°02' E 015°17'7211.1
2016-May-27 16:04N 40°10' E 014°44'611.2
2016-May-27 15:33N 40°15' E 014°43'1511.3
2016-May-27 14:12N 40°31' E 014°43'  
2016-May-24 22:33N 40°44' E 013°39'1110.6
2016-May-24 21:33N 40°51' E 013°30'1110.6
2016-May-24 20:33N 40°57' E 013°18'1110.8
2016-May-24 19:33N 41°03' E 013°06'1110.8
2016-May-24 18:33N 41°09' E 012°54'1110.8
2016-May-24 17:33N 41°14' E 012°42'2110.7
2016-May-24 15:33N 41°28' E 012°20'1110.7
2016-May-24 14:33N 41°35' E 012°10'  
2016-May-21 13:24N 42°56' E 010°34'2 2.3
2016-May-21 12:24N 42°54' E 010°34'8 9.1
2016-May-21 11:33N 42°55' E 010°23'1010.1
2016-May-21 10:33N 42°55' E 010°10'1010.1
2016-May-21 09:33N 42°55' E 009°56'10 9.8
2016-May-21 08:33N 42°56' E 009°43'1010.0
2016-May-21 07:33N 43°01' E 009°30'10 9.7
2016-May-21 06:33N 43°02' E 009°17'1010.4
2016-May-21 05:33N 43°02' E 009°03'1110.7
2016-May-21 04:33N 43°01' E 008°49'1010.3
2016-May-21 03:33N 43°00' E 008°35'1010.3
2016-May-21 02:33N 42°60' E 008°20'1010.3
2016-May-21 01:33N 42°59' E 008°06'1110.6
2016-May-21 00:33N 42°58' E 007°52'1111.2
2016-May-20 23:33N 42°58' E 007°37'103 9.9
2016-May-20 13:06N 43°07' E 005°16'610.5
2016-May-20 12:33N 43°09' E 005°09'9 9.4
2016-May-20 11:33N 43°16' E 004°60'9 9.3
2016-May-20 10:33N 43°24' E 004°54'2 1.4
2016-May-20 09:26N 43°26' E 004°53'0 0.0
2016-May-20 08:32N 43°26' E 004°53'0 0.0
2016-May-20 07:32N 43°26' E 004°53'0 0.0
2016-May-20 06:32N 43°26' E 004°53'0 0.0
2016-May-20 04:32N 43°26' E 004°53'0 0.0
2016-May-20 03:29N 43°26' E 004°53'0 0.0
2016-May-20 02:23N 43°26' E 004°53'0 0.0
2016-May-20 01:32N 43°26' E 004°53'0 0.0
2016-May-20 00:29N 43°26' E 004°53'0 0.0
2016-May-19 23:29N 43°26' E 004°53'0 0.0
2016-May-19 22:29N 43°26' E 004°53'0 0.0
2016-May-19 21:32N 43°26' E 004°53'0 0.0
2016-May-19 20:32N 43°26' E 004°53'0 0.0
2016-May-19 19:32N 43°26' E 004°53'0 0.0
2016-May-19 18:32N 43°26' E 004°53'0 0.0
2016-May-19 17:32N 43°26' E 004°53'0 0.0
2016-May-19 16:29N 43°26' E 004°53'0 0.0
2016-May-19 15:32N 43°26' E 004°53'0 0.0
2016-May-19 14:32N 43°26' E 004°53'0 0.0
2016-May-19 13:32N 43°26' E 004°53'0 0.0
2016-May-19 12:32N 43°26' E 004°53'0 0.0
2016-May-19 11:32N 43°26' E 004°53'0 0.0
2016-May-19 10:32N 43°26' E 004°53'0 0.0
2016-May-19 09:29N 43°26' E 004°53'0 0.0
2016-May-19 08:32N 43°26' E 004°53'0 0.0
2016-May-19 07:32N 43°26' E 004°53'0 0.0
2016-May-19 06:32N 43°26' E 004°53'0 0.0
2016-May-19 05:32N 43°26' E 004°53'0 0.0
2016-May-19 04:32N 43°26' E 004°53'0 0.0
2016-May-19 03:32N 43°26' E 004°53'0 0.0
2016-May-19 02:32N 43°26' E 004°53'0 0.0
2016-May-19 01:29N 43°26' E 004°53'0 0.0
2016-May-19 00:29N 43°26' E 004°53'0 0.0
2016-May-18 23:32N 43°26' E 004°53'0 0.0
2016-May-18 22:32N 43°26' E 004°53'0 0.0
2016-May-18 21:32N 43°26' E 004°53'0 0.0
2016-May-18 20:32N 43°26' E 004°53'0 0.0
2016-May-18 19:23N 43°26' E 004°53'0 0.0
2016-May-18 18:32N 43°26' E 004°53'0 0.0
2016-May-18 17:32N 43°26' E 004°53'0 0.0
2016-May-18 16:26N 43°26' E 004°53'0 0.0
2016-May-18 15:32N 43°26' E 004°53'0 0.0
2016-May-18 14:32N 43°26' E 004°53'0 0.0
2016-May-18 13:29N 43°26' E 004°53'0 0.0
2016-May-18 12:29N 43°26' E 004°53'0 0.0
2016-May-18 11:32N 43°26' E 004°53'0 0.0
2016-May-18 10:32N 43°26' E 004°53'0 0.0
2016-May-18 09:32N 43°26' E 004°53'0 0.0
2016-May-18 08:32N 43°26' E 004°53'0 0.0
2016-May-18 07:32N 43°26' E 004°53'0 0.0
2016-May-18 06:32N 43°26' E 004°53'  

Dump ship's entire track history